Time;durP1;ratioP1;P1;durP2;ratioP2;P2;SDS_P1;SDS_P2;PMS_P1;PMS_P2;Temp;Humidity;BMP_temperature;BMP_pressure;BME280_temperature;BME280_humidity;BME280_pressure;Samples;Min_cycle;Max_cycle;Signal;HPM_P1;HPM_P2
2022/03/12 00:00:50;;;;;;;17.35;8.75;;;;;;;-1.80;100.00;98537.41;5067721;28;20071;-82
2022/03/12 00:03:16;;;;;;;17.02;9.52;;;;;;;-1.79;100.00;98538.31;5016837;28;20123;-82
2022/03/12 00:06:06;;;;;;;20.95;10.18;;;;;;;-1.63;100.00;98548.81;5016777;28;20068;-82
2022/03/12 00:08:46;;;;;;;18.63;9.73;;;;;;;-1.67;100.00;98549.69;5035507;28;20033;-82
2022/03/12 00:11:23;;;;;;;18.33;9.63;;;;;;;-1.68;100.00;98547.94;5016310;28;20598;-82
2022/03/12 00:13:54;;;;;;;20.85;10.18;;;;;;;-1.81;100.00;98553.13;5051126;28;20481;-82
2022/03/12 00:16:24;;;;;;;18.40;10.05;;;;;;;-1.83;100.00;98558.38;5011373;28;20025;-81
2022/03/12 00:18:58;;;;;;;18.15;10.45;;;;;;;-1.88;100.00;98538.28;5017041;28;20098;-82
2022/03/12 00:21:29;;;;;;;17.40;9.60;;;;;;;-1.85;100.00;98544.41;5016433;28;20024;-82
2022/03/12 00:23:56;;;;;;;22.38;10.25;;;;;;;-1.82;100.00;98544.41;5016446;28;20063;-81
2022/03/12 00:26:23;;;;;;;17.40;10.30;;;;;;;-1.86;100.00;98536.53;5014156;28;20082;-81
2022/03/12 00:28:54;;;;;;;22.38;11.02;;;;;;;-1.77;100.00;98545.28;5032812;28;20039;-81
2022/03/12 00:31:20;;;;;;;19.75;9.88;;;;;;;-1.93;100.00;98533.00;5016873;28;20026;-81
2022/03/12 00:33:46;;;;;;;16.00;9.40;;;;;;;-1.94;100.00;98538.25;5016449;28;20068;-81
2022/03/12 00:36:14;;;;;;;16.67;9.40;;;;;;;-2.13;100.00;98546.91;5032522;28;20096;-81
2022/03/12 00:38:40;;;;;;;17.90;10.13;;;;;;;-2.18;100.00;98533.78;5016425;28;20488;-81
2022/03/12 00:41:07;;;;;;;21.42;10.80;;;;;;;-2.12;100.00;98536.44;5016189;28;20039;-81
2022/03/12 00:43:33;;;;;;;21.67;11.90;;;;;;;-2.15;100.00;98531.19;5016213;28;20021;-81
2022/03/12 00:45:59;;;;;;;22.52;11.38;;;;;;;-2.10;100.00;98533.81;5016204;28;20507;-81
2022/03/12 00:48:32;;;;;;;24.05;11.73;;;;;;;-2.15;100.00;98523.31;5016497;28;20025;-81
2022/03/12 00:50:58;;;;;;;18.73;10.55;;;;;;;-2.12;100.00;98531.19;5016228;28;20029;-80
2022/03/12 00:53:24;;;;;;;19.95;10.80;;;;;;;-2.12;100.00;98527.72;5016349;28;20495;-80
2022/03/12 00:55:49;;;;;;;22.85;10.77;;;;;;;-2.19;100.00;98532.06;5007287;28;20327;-81
2022/03/12 00:58:17;;;;;;;21.65;12.10;;;;;;;-2.12;100.00;98528.56;5016243;28;20059;-81
2022/03/12 01:00:43;;;;;;;27.33;13.20;;;;;;;-2.02;100.00;98529.47;5015910;28;20029;-82
2022/03/12 01:03:10;;;;;;;25.45;13.10;;;;;;;-1.95;100.00;98526.91;5014748;28;20044;-82
2022/03/12 01:05:45;;;;;;;25.77;12.45;;;;;;;-1.88;100.00;98527.78;5015802;28;20037;-81
2022/03/12 01:08:11;;;;;;;26.35;12.88;;;;;;;-1.81;100.00;98525.16;5032391;28;20035;-81
2022/03/12 01:10:37;;;;;;;24.30;11.25;;;;;;;-1.96;100.00;98535.63;5032852;28;20480;-81
2022/03/12 01:13:02;;;;;;;26.67;12.55;;;;;;;-1.91;100.00;98527.78;5032854;28;20556;-81
2022/03/12 01:15:28;;;;;;;18.92;11.05;;;;;;;-1.80;100.00;98534.78;5032801;28;20021;-81
2022/03/12 01:17:53;;;;;;;20.83;11.30;;;;;;;-1.88;100.00;98526.06;5017194;28;20033;-81
2022/03/12 01:20:21;;;;;;;24.67;11.95;;;;;;;-1.93;100.00;98532.13;5036744;28;20696;-81
2022/03/12 01:22:46;;;;;;;22.00;10.90;;;;;;;-1.83;100.00;98516.44;5036568;28;20040;-82
2022/03/12 01:25:12;;;;;;;22.50;11.43;;;;;;;-1.73;100.00;98526.09;5019032;28;20036;-82
2022/03/12 01:27:37;;;;;;;24.13;11.73;;;;;;;-1.76;100.00;98531.31;5036579;28;20435;-81
2022/03/12 01:30:07;;;;;;;21.23;11.48;;;;;;;-1.76;100.00;98528.69;5019649;28;20543;-82
2022/03/12 01:32:33;;;;;;;24.88;11.98;;;;;;;-1.82;100.00;98539.19;5019925;28;20025;-81
2022/03/12 01:35:04;;;;;;;19.90;10.82;;;;;;;-1.85;100.00;98533.91;5019886;28;20099;-82
2022/03/12 01:37:30;;;;;;;22.55;12.13;;;;;;;-1.79;100.00;98540.91;5013286;28;20025;-82
2022/03/12 01:39:57;;;;;;;22.52;12.35;;;;;;;-1.66;100.00;98542.69;5036301;28;20071;-82
2022/03/12 01:42:22;;;;;;;23.73;12.15;;;;;;;-1.88;100.00;98523.44;5019702;28;20045;-82
2022/03/12 01:44:50;;;;;;;25.23;12.32;;;;;;;-1.79;100.00;98531.31;5014852;28;20378;-82
2022/03/12 01:47:19;;;;;;;22.60;11.48;;;;;;;-1.78;100.00;98538.28;5018530;28;20094;-81
2022/03/12 01:49:49;;;;;;;22.25;11.27;;;;;;;-1.69;100.00;98535.69;5008367;28;20029;-81
2022/03/12 01:52:25;;;;;;;24.73;11.48;;;;;;;-1.65;100.00;98544.44;5015472;28;20032;-81
2022/03/12 01:54:51;;;;;;;21.75;11.00;;;;;;;-1.74;100.00;98532.19;5020970;28;20029;-81
2022/03/12 01:57:17;;;;;;;23.05;12.10;;;;;;;-1.75;100.00;98538.28;5019697;28;20025;-81
2022/03/12 01:59:43;;;;;;;20.00;10.48;;;;;;;-1.68;100.00;98552.28;5019294;28;20025;-82
2022/03/12 02:02:13;;;;;;;23.25;12.57;;;;;;;-1.73;100.00;98540.94;5042456;28;20428;-81
2022/03/12 02:04:39;;;;;;;24.95;12.13;;;;;;;-1.61;100.00;98547.94;5054891;28;20402;-81
2022/03/12 02:07:05;;;;;;;27.60;13.13;;;;;;;-1.72;100.00;98543.53;5055551;28;20025;-81
2022/03/12 02:09:30;;;;;;;29.88;13.85;;;;;;;-1.72;100.00;98546.16;5055681;28;20059;-82
2022/03/12 02:11:56;;;;;;;27.40;12.48;;;;;;;-1.77;100.00;98550.53;5056194;28;20061;-82
2022/03/12 02:14:24;;;;;;;24.70;11.05;;;;;;;-1.86;100.00;98542.66;5055396;28;20047;-83
2022/03/12 02:17:10;;;;;;;20.65;10.75;;;;;;;-1.87;100.00;98537.38;5055625;28;20086;-81
2022/03/12 02:19:36;;;;;;;17.75;9.90;;;;;;;-1.82;100.00;98554.91;5071155;28;20086;-82
2022/03/12 02:22:08;;;;;;;22.45;11.05;;;;;;;-1.85;100.00;98557.50;5055270;28;20127;-82
2022/03/12 02:24:36;;;;;;;23.88;11.45;;;;;;;-2.03;100.00;98539.06;5069933;28;20419;-81
2022/03/12 02:27:04;;;;;;;32.65;13.07;;;;;;;-1.99;100.00;98558.31;5067267;28;20032;-82
2022/03/12 02:29:30;;;;;;;30.20;13.50;;;;;;;-2.02;100.00;98553.06;5071267;28;20041;-81
2022/03/12 02:32:09;;;;;;;26.00;12.70;;;;;;;-2.09;100.00;98552.16;5072186;28;20024;-80
2022/03/12 02:34:44;;;;;;;28.65;13.40;;;;;;;-2.02;100.00;98553.94;5054547;28;20025;-81
2022/03/12 02:37:20;;;;;;;31.48;14.68;;;;;;;-2.08;100.00;98545.19;5073018;28;20028;-81
2022/03/12 02:39:46;;;;;;;28.30;14.45;;;;;;;-2.06;100.00;98552.16;5071511;28;20057;-82
2022/03/12 02:42:11;;;;;;;25.17;13.15;;;;;;;-2.03;100.00;98553.94;5055072;28;20041;-81
2022/03/12 02:44:37;;;;;;;22.77;11.65;;;;;;;-2.16;100.00;98557.38;5054232;28;20036;-81
2022/03/12 02:47:20;;;;;;;22.60;11.80;;;;;;;-2.15;100.00;98562.63;5054716;28;20047;-81
2022/03/12 02:49:48;;;;;;;22.92;10.90;;;;;;;-2.24;100.00;98560.84;5072595;28;20017;-81
2022/03/12 02:52:15;;;;;;;33.17;14.25;;;;;;;-2.24;100.00;98567.81;5055356;28;20042;-81
2022/03/12 02:54:41;;;;;;;24.80;11.85;;;;;;;-2.30;100.00;98559.94;5054504;28;20401;-81
2022/03/12 02:57:08;;;;;;;21.15;10.43;;;;;;;-2.30;100.00;98565.16;5054771;28;20028;-82
2022/03/12 02:59:34;;;;;;;23.13;11.23;;;;;;;-2.36;100.00;98562.53;5054570;28;20040;-81
2022/03/12 03:02:00;;;;;;;23.40;10.80;;;;;;;-2.36;100.00;98559.91;5054836;28;20071;-81
2022/03/12 03:04:26;;;;;;;17.73;9.32;;;;;;;-2.36;100.00;98558.16;5071231;28;20021;-81
2022/03/12 03:06:52;;;;;;;21.55;10.88;;;;;;;-2.21;100.00;98575.69;5054184;28;20560;-81
2022/03/12 03:09:17;;;;;;;20.10;9.35;;;;;;;-2.23;100.00;98561.72;5054452;28;20025;-81
2022/03/12 03:11:44;;;;;;;28.45;12.75;;;;;;;-2.29;100.00;98561.69;5071237;28;20031;-81
2022/03/12 03:14:12;;;;;;;20.95;10.10;;;;;;;-2.39;100.00;98554.66;5054185;28;20032;-81
2022/03/12 03:16:39;;;;;;;21.80;9.95;;;;;;;-2.26;100.00;98569.56;5054609;28;20458;-81
2022/03/12 03:19:04;;;;;;;25.73;11.68;;;;;;;-2.24;100.00;98583.53;5054413;28;20059;-81
2022/03/12 03:21:30;;;;;;;20.65;10.95;;;;;;;-2.21;100.00;98584.44;5054679;28;20036;-84
2022/03/12 03:23:56;;;;;;;25.52;12.90;;;;;;;-2.23;100.00;98580.94;5071625;28;20040;-84
2022/03/12 03:26:54;;;;;;;32.42;14.05;;;;;;;-2.21;100.00;98591.41;5053360;28;20389;-82
2022/03/12 03:29:21;;;;;;;35.10;15.90;;;;;;;-2.31;100.00;98594.88;5066652;28;20036;-83
2022/03/12 03:31:48;;;;;;;32.53;15.38;;;;;;;-2.43;100.00;98595.66;5054931;28;20036;-83
2022/03/12 03:34:14;;;;;;;30.80;14.32;;;;;;;-2.39;100.00;98593.94;5054418;28;20027;-83
2022/03/12 03:36:40;;;;;;;30.40;15.57;;;;;;;-2.45;100.00;98584.31;5054342;28;20487;-82
2022/03/12 03:39:06;;;;;;;31.58;15.07;;;;;;;-2.44;100.00;98598.28;5070749;28;20115;-83
2022/03/12 03:41:33;;;;;;;30.20;15.05;;;;;;;-2.63;100.00;98589.44;5069988;28;20046;-83
2022/03/12 03:43:58;;;;;;;29.92;14.55;;;;;;;-2.72;100.00;98596.34;5054720;28;20531;-82
2022/03/12 03:46:24;;;;;;;31.13;15.30;;;;;;;-2.66;100.00;98602.50;5053860;28;20048;-81
2022/03/12 03:48:51;;;;;;;30.40;14.52;;;;;;;-2.52;100.00;98602.59;5071014;28;20055;-82
2022/03/12 03:51:18;;;;;;;27.13;13.13;;;;;;;-2.62;100.00;98592.94;5054646;28;20032;-84
2022/03/12 03:53:44;;;;;;;28.13;13.23;;;;;;;-2.50;100.00;98593.00;5053792;28;20059;-83
2022/03/12 03:56:09;;;;;;;22.35;12.00;;;;;;;-2.45;100.00;98597.41;5047538;28;20107;-83
2022/03/12 03:58:37;;;;;;;22.80;12.13;;;;;;;-2.42;100.00;98601.78;5054142;28;20024;-83
2022/03/12 04:01:16;;;;;;;22.92;11.55;;;;;;;-2.42;100.00;98607.91;5054417;28;20044;-83
2022/03/12 04:03:47;;;;;;;22.17;11.40;;;;;;;-2.33;100.00;98605.31;5054247;28;20040;-85
2022/03/12 04:06:14;;;;;;;23.52;12.05;;;;;;;-2.24;100.00;98617.59;5054745;28;20500;-84
2022/03/12 04:08:41;;;;;;;28.60;14.13;;;;;;;-2.29;100.00;98606.22;5054197;28;20097;-83
2022/03/12 04:11:08;;;;;;;27.48;13.38;;;;;;;-2.21;100.00;98615.00;5054567;28;20037;-84
2022/03/12 04:13:34;;;;;;;33.97;16.50;;;;;;;-2.24;100.00;98615.84;5049013;28;20139;-83
2022/03/12 04:16:00;;;;;;;42.05;18.10;;;;;;;-2.15;100.00;98616.78;5052306;28;20025;-83
2022/03/12 04:18:26;;;;;;;35.70;17.23;;;;;;;-2.25;100.00;98608.00;5054287;28;20427;-82
2022/03/12 04:20:52;;;;;;;38.72;18.45;;;;;;;-2.17;100.00;98618.50;5053910;28;20029;-82
2022/03/12 04:23:21;;;;;;;35.78;18.00;;;;;;;-2.22;100.00;98621.13;5053896;28;20027;-83
2022/03/12 04:25:48;;;;;;;37.58;17.83;;;;;;;-2.07;100.00;98636.03;5054026;28;20036;-83
2022/03/12 04:28:13;;;;;;;30.80;16.13;;;;;;;-2.18;100.00;98622.03;5053049;28;20391;-83
2022/03/12 04:30:39;;;;;;;33.70;16.13;;;;;;;-2.20;100.00;98624.63;5053837;28;20120;-83
2022/03/12 04:33:07;;;;;;;30.80;15.20;;;;;;;-2.15;100.00;98624.66;5070473;28;20127;-84
2022/03/12 04:35:33;;;;;;;34.33;16.13;;;;;;;-2.14;100.00;98635.13;5053425;28;20031;-83
2022/03/12 04:38:00;;;;;;;35.47;17.77;;;;;;;-2.10;100.00;98625.53;5070002;28;20035;-83
2022/03/12 04:40:26;;;;;;;26.88;14.68;;;;;;;-2.11;100.00;98632.53;5069853;28;20028;-82
2022/03/12 04:42:53;;;;;;;30.25;15.18;;;;;;;-2.16;100.00;98639.50;5053030;28;20032;-82
2022/03/12 04:45:21;;;;;;;34.85;14.50;;;;;;;-2.29;100.00;98641.16;5052982;28;20039;-83
2022/03/12 04:47:49;;;;;;;29.80;14.32;;;;;;;-2.38;100.00;98643.72;5053329;28;20499;-83
2022/03/12 04:53:19;;;;;;;30.45;14.60;;;;;;;-2.47;100.00;98634.94;5055281;28;20064;-83
2022/03/12 04:55:45;;;;;;;28.75;14.02;;;;;;;-2.42;100.00;98627.97;5048697;28;20064;-83
2022/03/12 04:58:12;;;;;;;33.80;16.02;;;;;;;-2.18;100.00;98645.59;5069873;28;20763;-83
2022/03/12 05:00:39;;;;;;;36.63;16.80;;;;;;;-2.18;100.00;98654.31;5052897;28;20505;-82
2022/03/12 05:03:12;;;;;;;30.95;14.88;;;;;;;-2.18;100.00;98642.97;5017578;28;20049;-82
2022/03/12 05:05:39;;;;;;;32.23;15.20;;;;;;;-2.12;100.00;98653.50;5033564;28;20032;-83
2022/03/12 05:08:14;;;;;;;46.63;17.58;;;;;;;-2.13;100.00;98643.88;5033343;28;20025;-83
2022/03/12 05:10:40;;;;;;;35.53;16.60;;;;;;;-2.09;100.00;98662.22;5016507;28;20029;-82
2022/03/12 05:13:06;;;;;;;31.05;15.35;;;;;;;-2.07;100.00;98657.00;5016472;28;20418;-83
2022/03/12 05:15:39;;;;;;;30.65;15.15;;;;;;;-2.38;100.00;98666.41;5032309;28;20581;-82
2022/03/12 05:18:11;;;;;;;27.55;13.88;;;;;;;-2.49;100.00;98655.00;5016644;28;20035;-82
2022/03/12 05:20:38;;;;;;;35.07;15.30;;;;;;;-2.59;100.00;98671.50;5016578;28;20112;-83
2022/03/12 05:23:07;;;;;;;30.42;14.88;;;;;;;-2.51;100.00;98672.44;5016431;28;20114;-83
2022/03/12 05:25:40;;;;;;;30.00;14.60;;;;;;;-2.47;100.00;98674.22;5016126;28;20557;-83
2022/03/12 05:28:06;;;;;;;29.85;14.98;;;;;;;-2.64;100.00;98673.19;5017037;28;20115;-83
2022/03/12 05:30:32;;;;;;;34.10;16.50;;;;;;;-2.68;100.00;98687.16;5016458;28;20123;-83
2022/03/12 05:32:57;;;;;;;34.65;17.55;;;;;;;-2.57;100.00;98690.72;5016372;28;20036;-83
2022/03/12 05:35:23;;;;;;;27.83;14.32;;;;;;;-2.49;100.00;98686.44;5015765;28;20128;-82
2022/03/12 05:37:51;;;;;;;32.03;15.40;;;;;;;-2.65;100.00;98687.16;5016519;28;20028;-83
2022/03/12 05:40:26;;;;;;;35.38;14.75;;;;;;;-2.52;100.00;98689.03;5016467;28;20029;-83
2022/03/12 05:42:55;;;;;;;32.13;14.43;;;;;;;-2.25;100.00;98694.47;5033225;28;20158;-83
2022/03/12 05:45:22;;;;;;;31.70;14.82;;;;;;;-2.10;100.00;98686.69;5016719;28;20089;-82
2022/03/12 05:47:49;;;;;;;29.35;15.32;;;;;;;-1.99;100.00;98692.88;5016172;28;20035;-82
2022/03/12 05:50:18;;;;;;;31.15;14.35;;;;;;;-1.98;100.00;98697.25;5016146;28;20025;-83
2022/03/12 05:52:49;;;;;;;32.50;15.07;;;;;;;-1.96;100.00;98692.88;5016017;28;20033;-83
2022/03/12 05:55:18;;;;;;;30.83;15.00;;;;;;;-1.90;100.00;98700.78;5008360;28;20112;-82
2022/03/12 05:57:44;;;;;;;29.35;14.32;;;;;;;-1.88;100.00;98699.06;5006432;28;20037;-83
2022/03/12 06:00:11;;;;;;;27.35;13.25;;;;;;;-1.94;98.83;98701.66;5004967;28;20503;-82
2022/03/12 06:02:51;;;;;;;28.13;13.95;;;;;;;-1.93;97.49;98687.66;5046539;28;20433;-82
2022/03/12 06:05:21;;;;;;;34.00;15.90;;;;;;;-1.71;96.36;98709.63;5048989;28;20068;-82
2022/03/12 06:07:49;;;;;;;39.53;18.10;;;;;;;-1.48;96.56;98722.84;5070325;28;20494;-83
2022/03/12 06:10:28;;;;;;;51.10;20.50;;;;;;;-1.40;95.88;98726.38;5056376;28;20033;-84
2022/03/12 06:12:56;;;;;;;48.17;21.20;;;;;;;-1.19;95.57;98734.31;5056156;28;20044;-82
2022/03/12 06:15:24;;;;;;;34.42;16.42;;;;;;;-1.13;93.62;98735.22;5056413;28;20499;-83
2022/03/12 06:17:50;;;;;;;61.58;23.55;;;;;;;-1.09;92.60;98741.38;5047782;28;20033;-82
2022/03/12 06:20:20;;;;;;;79.10;29.70;;;;;;;-1.08;92.26;98729.13;5056540;28;20110;-82
2022/03/12 06:22:46;;;;;;;59.15;23.63;;;;;;;-0.83;90.93;98749.31;5055928;28;20090;-82
2022/03/12 06:25:15;;;;;;;34.35;17.80;;;;;;;-0.86;88.35;98758.03;5057040;28;20067;-82
2022/03/12 06:27:42;;;;;;;35.45;17.75;;;;;;;-0.68;88.20;98757.22;5048631;28;20032;-81
2022/03/12 06:30:10;;;;;;;36.75;18.48;;;;;;;-0.43;86.67;98779.16;5056099;28;20031;-82
2022/03/12 06:32:37;;;;;;;39.95;20.70;;;;;;;-0.11;83.41;98761.63;5056635;28;20030;-83
2022/03/12 06:35:04;;;;;;;35.80;19.67;;;;;;;0.48;81.07;98754.53;5056075;28;20029;-83
2022/03/12 06:37:30;;;;;;;42.47;21.35;;;;;;;1.04;75.57;98753.44;5074001;28;20025;-82
2022/03/12 06:39:56;;;;;;;31.55;17.73;;;;;;;0.69;75.22;98771.13;5057759;28;20036;-84
2022/03/12 06:42:24;;;;;;;35.22;19.13;;;;;;;1.05;75.06;98770.97;5048102;28;20189;-83
2022/03/12 06:44:54;;;;;;;32.97;16.48;;;;;;;0.50;73.43;98755.41;4997533;28;20030;-82
2022/03/12 06:47:20;;;;;;;34.33;17.95;;;;;;;0.64;75.26;98773.78;4997414;28;20021;-82
2022/03/12 06:49:54;;;;;;;28.00;15.68;;;;;;;0.89;74.90;98778.06;5014293;28;20520;-83
2022/03/12 06:52:20;;;;;;;32.15;16.77;;;;;;;0.95;74.54;98779.81;4997291;28;20038;-83
2022/03/12 06:54:46;;;;;;;26.70;14.68;;;;;;;1.27;71.19;98758.56;4996688;28;20210;-83
2022/03/12 06:57:14;;;;;;;27.80;14.93;;;;;;;1.38;72.30;98765.56;4992355;28;20160;-82
2022/03/12 06:59:40;;;;;;;29.25;14.02;;;;;;;1.14;71.91;98773.56;4994179;28;20038;-83
2022/03/12 07:02:05;;;;;;;29.95;15.35;;;;;;;0.99;72.31;98771.00;4995462;28;20048;-83
2022/03/12 07:04:31;;;;;;;39.60;19.60;;;;;;;1.09;70.91;98775.34;4992795;28;20042;-89
2022/03/12 07:06:57;;;;;;;27.52;14.80;;;;;;;0.94;72.28;98785.97;4997099;28;20033;-82
2022/03/12 07:09:22;;;;;;;38.28;20.63;;;;;;;1.40;70.18;98774.31;5008792;28;20076;-77
2022/03/12 07:11:48;;;;;;;36.00;18.35;;;;;;;1.22;68.90;98766.53;5012949;28;20034;-83
2022/03/12 07:14:16;;;;;;;29.38;15.57;;;;;;;2.33;65.67;98753.34;4997086;28;20060;-85
2022/03/12 07:16:42;;;;;;;33.60;16.83;;;;;;;1.91;64.71;98759.88;5005182;28;20441;-83
2022/03/12 07:19:07;;;;;;;26.13;14.15;;;;;;;3.65;60.61;98759.59;4993096;28;20068;-83
2022/03/12 07:21:34;;;;;;;87.55;42.83;;;;;;;4.52;56.63;98744.00;4991900;28;20041;-83
2022/03/12 07:23:59;;;;;;;18.13;10.45;;;;;;;6.49;51.49;98737.72;4995294;28;20104;-83
2022/03/12 07:26:25;;;;;;;19.13;10.77;;;;;;;7.02;47.20;98719.41;4996201;28;20350;-83
2022/03/12 07:28:51;;;;;;;18.33;10.00;;;;;;;7.35;48.31;98742.34;4994819;28;20481;-84
2022/03/12 07:31:23;;;;;;;16.55;9.82;;;;;;;6.97;46.92;98734.63;4995169;28;20076;-83
2022/03/12 07:33:48;;;;;;;31.60;16.25;;;;;;;6.02;49.56;98750.47;4996204;28;20033;-85
2022/03/12 07:36:14;;;;;;;76.80;36.42;;;;;;;4.41;53.61;98763.63;4993467;28;20100;-86
2022/03/12 07:38:42;;;;;;;24.35;14.02;;;;;;;5.40;51.38;98766.03;4992534;28;20041;-87
2022/03/12 07:41:08;;;;;;;43.38;21.42;;;;;;;7.37;47.80;98752.97;4995065;28;20526;-86
2022/03/12 07:43:34;;;;;;;64.70;31.73;;;;;;;8.51;45.41;98742.19;4993202;28;20878;-87
2022/03/12 07:46:00;;;;;;;20.65;11.85;;;;;;;8.26;44.31;98730.56;5013264;28;21287;-88
2022/03/12 07:48:25;;;;;;;24.55;14.30;;;;;;;7.76;45.62;98734.88;4993838;28;20053;-90
2022/03/12 07:50:51;;;;;;;19.75;11.80;;;;;;;6.57;48.96;98750.81;4995681;28;20049;-89
2022/03/12 07:53:17;;;;;;;25.92;14.20;;;;;;;6.45;49.65;98749.38;4994981;28;20034;-80
2022/03/12 07:55:43;;;;;;;38.50;16.42;;;;;;;6.79;50.09;98767.94;4995398;28;20034;-90
2022/03/12 07:58:08;;;;;;;34.15;16.95;;;;;;;7.39;46.24;98737.81;4999528;28;20026;-89
2022/03/12 08:00:34;;;;;;;30.63;15.10;;;;;;;6.26;48.50;98752.53;4998343;28;20112;-90
2022/03/12 08:03:00;;;;;;;30.38;15.48;;;;;;;5.07;50.33;98734.94;4995636;28;20064;-91
2022/03/12 08:05:26;;;;;;;25.05;13.98;;;;;;;4.80;52.94;98757.56;4998469;28;20117;-90
2022/03/12 08:08:02;;;;;;;19.60;11.70;;;;;;;4.24;50.97;98774.53;5003227;28;20081;-92
2022/03/12 08:10:28;;;;;;;18.42;10.00;;;;;;;4.07;52.58;98761.56;5000149;28;20089;-89
2022/03/12 08:12:54;;;;;;;16.55;9.30;;;;;;;3.66;53.56;98777.22;4994689;28;20025;-89
2022/03/12 08:15:20;;;;;;;17.48;10.25;;;;;;;2.78;56.73;98786.31;4996984;28;20413;-89
2022/03/12 08:17:46;;;;;;;24.20;13.15;;;;;;;2.82;58.85;98803.00;4988764;28;20034;-89
2022/03/12 08:20:14;;;;;;;33.13;14.30;;;;;;;1.97;57.82;98793.28;5012676;28;20037;-89
2022/03/12 08:22:46;;;;;;;26.20;12.82;;;;;;;1.55;59.33;98792.66;5012971;28;20060;-88
2022/03/12 08:25:13;;;;;;;21.90;11.05;;;;;;;1.63;60.33;98793.47;4997360;28;20037;-88
2022/03/12 08:27:40;;;;;;;25.23;13.05;;;;;;;2.09;62.23;98819.56;5011790;28;20022;-81
2022/03/12 08:30:07;;;;;;;16.75;9.40;;;;;;;1.50;60.97;98801.50;4998058;28;20048;-88
2022/03/12 08:32:35;;;;;;;24.27;11.85;;;;;;;2.45;58.67;98798.09;4986292;28;20033;-86
2022/03/12 08:35:05;;;;;;;27.70;12.27;;;;;;;2.96;56.70;98809.88;5013870;28;20029;-88
2022/03/12 08:37:56;;;;;;;19.48;11.02;;;;;;;3.04;53.76;98789.53;4997998;28;20113;-88
2022/03/12 08:40:25;;;;;;;29.17;15.15;;;;;;;5.06;49.36;98757.06;5012465;28;20049;-87
2022/03/12 08:42:50;;;;;;;13.50;7.25;;;;;;;6.61;43.36;98712.63;5013505;28;21547;-89
2022/03/12 08:45:17;;;;;;;14.85;7.45;;;;;;;8.49;39.37;98728.03;5012484;28;20034;-89
2022/03/12 08:47:43;;;;;;;10.70;5.68;;;;;;;9.01;37.03;98703.88;4995230;28;20116;-88
2022/03/12 08:50:09;;;;;;;9.18;5.20;;;;;;;10.09;37.91;98713.84;4992927;28;20026;-88
2022/03/12 08:52:36;;;;;;;14.35;8.00;;;;;;;10.40;34.02;98675.16;5012692;28;20037;-88
2022/03/12 08:55:03;;;;;;;11.15;6.63;;;;;;;10.99;33.98;98702.81;5013699;28;20057;-81
2022/03/12 08:57:28;;;;;;;11.90;6.80;;;;;;;10.24;35.91;98707.88;5029863;28;20037;-88
2022/03/12 08:59:54;;;;;;;12.68;7.88;;;;;;;9.90;35.36;98702.19;4992825;28;20072;-90
2022/03/12 09:02:23;;;;;;;9.75;6.60;;;;;;;10.79;34.39;98705.53;4986567;28;20073;-88
2022/03/12 09:04:49;;;;;;;16.80;7.43;;;;;;;11.09;34.74;98714.84;4993299;28;20126;-88
2022/03/12 09:07:15;;;;;;;15.82;8.60;;;;;;;12.82;31.54;98685.75;5010337;28;20566;-88
2022/03/12 09:09:41;;;;;;;10.52;6.07;;;;;;;11.52;32.84;98696.78;4993432;28;20022;-89
2022/03/12 09:12:08;;;;;;;14.85;7.78;;;;;;;9.40;35.15;98714.88;4990210;28;20022;-89
2022/03/12 09:14:36;;;;;;;17.27;9.75;;;;;;;9.30;35.60;98721.47;5010061;28;20025;-88
2022/03/12 09:17:04;;;;;;;14.60;8.93;;;;;;;8.94;36.86;98731.72;5003318;28;20033;-89
2022/03/12 09:19:29;;;;;;;15.85;8.80;;;;;;;7.30;37.71;98722.13;4993839;28;20410;-88
2022/03/12 09:21:59;;;;;;;18.75;11.73;;;;;;;6.19;41.97;98753.56;4993485;28;20045;-88
2022/03/12 09:24:28;;;;;;;14.35;8.73;;;;;;;5.43;41.96;98734.13;4994954;28;20112;-87
2022/03/12 09:26:54;;;;;;;18.38;9.98;;;;;;;4.34;43.41;98754.91;5007887;28;20046;-87
2022/03/12 09:29:20;;;;;;;12.93;8.18;;;;;;;4.01;44.38;98768.72;4991954;28;20030;-88
2022/03/12 09:31:45;;;;;;;19.73;8.40;;;;;;;4.02;45.52;98775.78;5011926;28;20030;-88
2022/03/12 09:34:11;;;;;;;11.77;5.65;;;;;;;4.15;43.78;98777.34;5010624;28;20390;-87
2022/03/12 09:36:38;;;;;;;9.35;5.88;;;;;;;4.92;41.87;98758.19;4993806;28;20026;-87
2022/03/12 09:39:06;;;;;;;10.65;5.72;;;;;;;4.09;42.66;98761.53;4994837;28;20034;-88
2022/03/12 09:41:35;;;;;;;11.85;6.63;;;;;;;3.75;44.34;98764.72;4997803;28;20041;-88
2022/03/12 09:44:01;;;;;;;10.30;6.30;;;;;;;4.04;44.29;98763.38;5014257;28;20407;-88
2022/03/12 09:46:27;;;;;;;10.85;6.40;;;;;;;4.04;45.16;98763.38;4997521;28;20128;-88
2022/03/12 09:48:53;;;;;;;12.23;6.50;;;;;;;3.57;44.63;98749.13;5010470;28;20117;-88
2022/03/12 09:51:18;;;;;;;10.70;5.88;;;;;;;3.46;46.19;98773.97;4997242;28;20517;-89
2022/03/12 09:53:45;;;;;;;8.05;5.15;;;;;;;4.43;43.11;98748.59;5014270;28;20078;-88
2022/03/12 09:56:11;;;;;;;11.93;6.70;;;;;;;5.02;41.26;98739.44;5012525;28;20030;-88
2022/03/12 09:58:41;;;;;;;10.85;7.00;;;;;;;5.68;40.33;98735.34;4995957;28;20413;-88
2022/03/12 10:01:15;;;;;;;12.82;6.03;;;;;;;6.14;40.39;98739.53;4997110;28;20069;-88
2022/03/12 10:03:44;;;;;;;8.95;5.28;;;;;;;5.72;38.98;98715.75;5014599;28;20536;-88
2022/03/12 10:06:10;;;;;;;8.93;4.47;;;;;;;5.70;40.35;98724.66;5014080;28;20450;-87
2022/03/12 10:08:37;;;;;;;7.15;5.22;;;;;;;7.86;35.77;98715.91;5010757;28;20486;-88
2022/03/12 10:11:05;;;;;;;5.97;3.83;;;;;;;8.54;35.15;98713.63;5005496;28;20030;-88
2022/03/12 10:13:38;;;;;;;6.05;4.20;;;;;;;10.63;31.91;98670.53;4997928;28;20057;-87
2022/03/12 10:16:14;;;;;;;7.78;4.68;;;;;;;10.63;33.46;98721.38;4994834;28;20037;-88
2022/03/12 10:19:00;;;;;;;6.65;4.50;;;;;;;9.13;33.86;98634.03;4996404;28;20394;-86
2022/03/12 10:21:26;;;;;;;10.70;5.30;;;;;;;9.53;32.09;98680.53;5012944;28;20129;-87
2022/03/12 10:23:52;;;;;;;9.75;4.72;;;;;;;9.79;32.10;98683.91;5012101;28;20030;-87
2022/03/12 10:26:18;;;;;;;8.50;5.20;;;;;;;9.40;32.16;98679.28;5009309;28;20180;-86
2022/03/12 10:28:44;;;;;;;5.60;4.03;;;;;;;7.88;32.57;98691.88;4992682;28;20038;-87
2022/03/12 10:31:12;;;;;;;13.80;7.10;;;;;;;8.44;34.43;98700.66;4996002;28;20129;-87
2022/03/12 10:33:39;;;;;;;20.33;10.60;;;;;;;8.75;35.84;98697.75;5008643;28;20757;-86
2022/03/12 10:36:16;;;;;;;26.67;13.60;;;;;;;7.41;37.99;98704.91;4995193;28;20567;-87
2022/03/12 10:38:46;;;;;;;35.28;19.00;;;;;;;6.50;39.80;98706.69;5008978;28;20036;-87
2022/03/12 10:41:12;;;;;;;16.13;9.48;;;;;;;5.60;40.35;98708.06;4996368;28;20084;-87
2022/03/12 10:43:49;;;;;;;21.58;10.98;;;;;;;4.90;42.57;98712.31;4996060;28;20042;-87
2022/03/12 10:46:35;;;;;;;24.92;9.95;;;;;;;4.61;41.81;98709.38;4995785;28;20036;-87
2022/03/12 10:49:03;;;;;;;28.00;10.90;;;;;;;4.29;43.99;98728.53;5010725;28;20026;-87
2022/03/12 10:51:34;;;;;;;25.98;12.77;;;;;;;4.11;42.48;98706.78;4995847;28;20075;-87
2022/03/12 10:54:15;;;;;;;19.10;9.55;;;;;;;4.10;42.52;98707.69;4996442;28;20037;-86
2022/03/12 10:56:51;;;;;;;27.67;10.32;;;;;;;3.81;43.12;98719.63;5009780;28;20069;-87
2022/03/12 10:59:25;;;;;;;20.02;10.27;;;;;;;3.68;43.47;98712.81;4993703;28;20036;-86
2022/03/12 11:02:00;;;;;;;18.13;8.48;;;;;;;3.61;44.44;98710.28;4991883;28;20054;-87
2022/03/12 11:04:29;;;;;;;18.73;9.52;;;;;;;3.60;44.06;98709.41;4994197;28;20030;-87
2022/03/12 11:06:58;;;;;;;30.75;16.20;;;;;;;4.20;42.15;98706.63;5012091;28;20378;-87
2022/03/12 11:09:35;;;;;;;18.50;9.68;;;;;;;4.76;40.46;98695.81;4994737;28;20099;-87
2022/03/12 11:12:04;;;;;;;8.55;5.35;;;;;;;5.12;38.02;98682.66;5011895;28;20489;-86
2022/03/12 11:14:31;;;;;;;11.65;4.65;;;;;;;5.96;37.61;98664.75;5013203;28;20051;-87
2022/03/12 11:16:57;;;;;;;10.43;5.20;;;;;;;6.50;35.30;98659.72;5009816;28;20065;-85
2022/03/12 11:19:39;;;;;;;13.23;5.72;;;;;;;7.55;33.37;98638.81;4997011;28;20516;-87
2022/03/12 11:22:13;;;;;;;15.50;7.75;;;;;;;9.49;32.48;98641.53;5010744;28;20148;-86
2022/03/12 11:24:48;;;;;;;14.20;8.00;;;;;;;10.95;30.20;98631.59;4993743;28;20048;-87
2022/03/12 11:27:27;;;;;;;11.23;5.43;;;;;;;11.84;27.16;98600.50;5003689;28;20482;-87